Terminal Aerodrome Forecast
Issued by NWS

Home | Current Version | Previous Version | Text Only | Print | Product List | Glossary On
Versions: 1 2 3 4 5 6 7 8 9 10 11 12 13 14
000
FTUS41 KPBZ 250520
TAFBVI
TAF
KBVI 250520Z 2506/2606 10009KT P6SM VCSH BKN080
     FM251700 10010G20KT P6SM OVC080
     FM260000 09008KT P6SM BKN015
      AMD NOT SKED=

USA.gov is the U.S. government's official web portal to all federal, state and local government web resources and services.